Terminal Aerodrome Forecast
Issued by NWS Melbourne, FL

Home | Current Version | Previous Version | Text Only | Print | Product List | Glossary On
Versions: 1 2 3 4 5 6 7 8 9 10 11 12 13 14 15 16 17 18 19 20
981
FTUS42 KMLB 281836 AAB
TAFDAB
TAF AMD
KDAB 281836Z 2819/2918 25008KT P6SM VCTS SCT050CB SCT250
      TEMPO 2819/2820 3SM -TSRA BKN025CB
     FM290000 21006KT P6SM SCT060 BKN250
     FM290500 VRB04KT P6SM SKC=

USA.gov is the U.S. government's official web portal to all federal, state and local government web resources and services.